SBUL/UDI METAR and TAF weather

Enter ICAO airport designator
Station Type Date Time Source
SBUL METAR 2021/09/24 00:00 UTC NOAA

SBUL 240000Z 17014KT CAVOK 27/07 Q1018


Station Type Date Time Source
SBUL Decoded METAR 2021/09/24 00:00 UTC NOAA

Uberlandia , Brazil (SBUL) 18-53S 048-14W
Sep 23, 2021 - 08:00 PM EDT / 2021.09.24 0000 UTC
Wind: from the S (170 degrees) at 16 MPH (14 KT):0
Visibility: greater than 7 mile(s):0
Temperature: 80 F (27 C)
Dew Point: 44 F (7 C)
Relative Humidity: 28%
Pressure (altimeter): 30.06 in. Hg (1018 hPa)
ob: SBUL 240000Z 17014KT CAVOK 27/07 Q1018
cycle: 0

Station Type Date Time Source
SBUL TAF 2021/09/21 18:27 UTC NOAA

TAF SBUL 211400Z 2118/2206 30005KT 8000 NSC TX36/2118Z TN25/2205Z
BECMG 2119/2121 23005KT
BECMG 2123/2201 14008KT
RMK PGF

Example: see airport list